Time;durP1;ratioP1;P1;durP2;ratioP2;P2;SDS_P1;SDS_P2;PMS_P1;PMS_P2;Temp;Humidity;BMP_temperature;BMP_pressure;BME280_temperature;BME280_humidity;BME280_pressure;Samples;Min_cycle;Max_cycle;Signal;HPM_P1;HPM_P2
2023/12/24 00:00:14;;;;;;;0.50;0.50;;;;;;;7.62;84.26;94091.22;5069313;28;20202;-69
2023/12/24 00:02:40;;;;;;;1.60;1.20;;;;;;;7.37;84.11;94085.94;5070413;28;20205;-70
2023/12/24 00:05:05;;;;;;;0.40;0.40;;;;;;;7.41;84.26;94097.59;5070672;28;20188;-70
2023/12/24 00:07:31;;;;;;;0.40;0.40;;;;;;;7.61;83.72;94102.75;5070220;28;20182;-70
2023/12/24 00:09:56;;;;;;;0.47;0.47;;;;;;;7.68;83.92;94093.81;5071480;28;20655;-69
2023/12/24 00:12:22;;;;;;;0.37;0.37;;;;;;;7.77;83.83;94102.22;5071431;28;20193;-69
2023/12/24 00:14:47;;;;;;;0.40;0.40;;;;;;;7.85;83.67;94104.59;5071337;28;20178;-69
2023/12/24 00:17:13;;;;;;;0.40;0.40;;;;;;;7.93;83.26;94097.28;5053377;28;20189;-69
2023/12/24 00:19:38;;;;;;;0.43;0.43;;;;;;;8.16;82.48;94108.97;5070968;28;20175;-70
2023/12/24 00:22:05;;;;;;;0.70;0.70;;;;;;;8.25;81.53;94116.34;5070909;28;20202;-70
2023/12/24 00:24:31;;;;;;;0.30;0.30;;;;;;;8.39;81.58;94117.06;5071557;28;20179;-69
2023/12/24 00:26:57;;;;;;;0.40;0.40;;;;;;;8.46;81.26;94112.59;5071843;28;20174;-69
2023/12/24 00:29:22;;;;;;;0.40;0.40;;;;;;;8.64;80.26;94119.69;5071586;28;20182;-69
2023/12/24 00:31:48;;;;;;;0.40;0.40;;;;;;;8.56;80.19;94101.59;5071386;28;20662;-69
2023/12/24 00:34:13;;;;;;;0.40;0.40;;;;;;;8.84;79.41;94143.09;5071200;28;20194;-70
2023/12/24 00:36:39;;;;;;;0.40;0.40;;;;;;;8.75;78.93;94107.66;5071122;28;20198;-70
2023/12/24 00:39:04;;;;;;;0.40;0.40;;;;;;;9.01;78.83;94137.03;5071311;28;20233;-69
2023/12/24 00:41:32;;;;;;;0.43;0.43;;;;;;;9.09;78.76;94144.63;5071079;28;20214;-69
2023/12/24 00:43:58;;;;;;;0.40;0.40;;;;;;;9.22;77.96;94151.56;5071333;28;20253;-70
2023/12/24 00:46:23;;;;;;;0.40;0.40;;;;;;;9.38;76.45;94150.97;5070889;28;20257;-70
2023/12/24 00:48:50;;;;;;;0.50;0.50;;;;;;;9.51;76.04;94160.53;5071069;28;20194;-70
2023/12/24 00:51:15;;;;;;;0.43;0.43;;;;;;;9.59;73.31;94162.84;5070634;28;20627;-69
2023/12/24 00:53:41;;;;;;;0.40;0.40;;;;;;;9.74;73.03;94172.94;5070658;28;20220;-69
2023/12/24 00:56:06;;;;;;;0.40;0.40;;;;;;;9.84;72.66;94178.50;5070608;28;20719;-70
2023/12/24 00:58:32;;;;;;;0.40;0.40;;;;;;;9.86;72.23;94179.03;5070742;28;20174;-69
2023/12/24 01:00:57;;;;;;;0.43;0.43;;;;;;;9.90;72.19;94185.47;5070272;28;20200;-70
2023/12/24 01:03:23;;;;;;;0.40;0.40;;;;;;;9.89;71.55;94197.00;5071088;28;20257;-70
2023/12/24 01:05:48;;;;;;;0.40;0.40;;;;;;;9.87;70.74;94199.06;5070864;28;20253;-69
2023/12/24 01:08:14;;;;;;;0.40;0.40;;;;;;;9.91;70.23;94210.75;5070825;28;20213;-68
2023/12/24 01:10:39;;;;;;;0.40;0.40;;;;;;;9.92;69.96;94217.59;5070640;28;20636;-68
2023/12/24 01:13:05;;;;;;;0.40;0.40;;;;;;;9.92;69.87;94216.81;5070463;28;20182;-68
2023/12/24 01:15:30;;;;;;;0.40;0.40;;;;;;;9.79;69.54;94202.00;5070485;28;20178;-68
2023/12/24 01:17:56;;;;;;;0.40;0.40;;;;;;;9.91;69.30;94231.78;5070503;28;20178;-67
2023/12/24 01:20:21;;;;;;;0.30;0.30;;;;;;;9.86;69.54;94228.97;5070271;28;20191;-69
2023/12/24 01:22:47;;;;;;;0.40;0.40;;;;;;;9.77;70.34;94232.97;5070544;28;20175;-70
2023/12/24 01:25:13;;;;;;;0.30;0.30;;;;;;;9.71;70.45;94237.25;5070439;28;20180;-69
2023/12/24 01:27:38;;;;;;;0.30;0.30;;;;;;;9.48;70.40;94231.06;5070494;28;20174;-67
2023/12/24 01:30:05;;;;;;;0.40;0.40;;;;;;;9.41;70.40;94202.25;5070382;28;20629;-68
2023/12/24 01:32:31;;;;;;;0.50;0.50;;;;;;;9.63;69.24;94234.13;5070165;28;20170;-68
2023/12/24 01:34:58;;;;;;;0.40;0.40;;;;;;;9.60;68.20;94242.47;5069184;28;20306;-68
2023/12/24 01:37:23;;;;;;;0.30;0.30;;;;;;;9.62;68.73;94256.16;5070200;28;20178;-68
2023/12/24 01:39:49;;;;;;;0.40;0.40;;;;;;;9.60;68.03;94248.50;5070078;28;20273;-68
2023/12/24 01:42:14;;;;;;;0.50;0.50;;;;;;;9.30;67.29;94214.28;5069984;28;20213;-68
2023/12/24 01:44:40;;;;;;;0.30;0.30;;;;;;;9.38;67.10;94250.78;5070101;28;20643;-68
2023/12/24 01:47:07;;;;;;;0.40;0.40;;;;;;;9.38;66.69;94250.78;5070156;28;20347;-68
2023/12/24 01:49:33;;;;;;;0.40;0.40;;;;;;;9.17;66.40;94211.78;5070028;28;20913;-68
2023/12/24 01:51:59;;;;;;;0.30;0.30;;;;;;;9.32;65.96;94233.28;5070037;28;20177;-67
2023/12/24 01:54:26;;;;;;;0.30;0.30;;;;;;;9.44;66.06;94244.63;5069910;28;20186;-68
2023/12/24 01:56:52;;;;;;;0.40;0.40;;;;;;;9.39;65.84;94254.22;5069951;28;20181;-68
2023/12/24 01:59:17;;;;;;;0.50;0.50;;;;;;;9.48;65.84;94257.34;5069967;28;20178;-68
2023/12/24 02:01:45;;;;;;;0.30;0.30;;;;;;;9.32;65.53;94254.28;5069804;28;20285;-68
2023/12/24 02:04:11;;;;;;;0.40;0.40;;;;;;;9.41;66.12;94263.47;5069783;28;20266;-68
2023/12/24 02:06:36;;;;;;;0.40;0.40;;;;;;;9.20;66.50;94252.56;5069955;28;20201;-68
2023/12/24 02:09:02;;;;;;;0.30;0.30;;;;;;;8.97;67.38;94233.00;5069734;28;20213;-68
2023/12/24 02:11:28;;;;;;;0.40;0.40;;;;;;;9.19;66.84;94275.41;5069774;28;20175;-68
2023/12/24 02:13:53;;;;;;;0.60;0.60;;;;;;;9.24;66.20;94280.81;5069805;28;20722;-68
2023/12/24 02:16:21;;;;;;;0.40;0.40;;;;;;;9.25;66.22;94276.38;5069847;28;20177;-68
2023/12/24 02:18:47;;;;;;;0.50;0.50;;;;;;;9.22;65.99;94276.81;5069545;28;20185;-68
2023/12/24 02:21:12;;;;;;;0.40;0.40;;;;;;;9.05;66.55;94258.97;5069609;28;20194;-68
2023/12/24 02:23:38;;;;;;;0.40;0.40;;;;;;;8.97;66.64;94259.25;5069685;28;20257;-68
2023/12/24 02:26:12;;;;;;;0.40;0.40;;;;;;;8.96;67.20;94283.09;5069688;28;20190;-68
2023/12/24 02:28:42;;;;;;;0.30;0.30;;;;;;;8.97;67.54;94293.38;5069534;28;20185;-68
2023/12/24 02:31:11;;;;;;;0.40;0.40;;;;;;;8.90;67.55;94290.00;5069655;28;20166;-69
2023/12/24 02:33:40;;;;;;;0.40;0.40;;;;;;;8.78;67.79;94267.28;5069544;28;20174;-69
2023/12/24 02:36:09;;;;;;;0.40;0.40;;;;;;;8.89;67.56;94284.97;5067517;28;20901;-69
2023/12/24 02:38:35;;;;;;;0.37;0.37;;;;;;;8.82;67.75;94278.97;5069347;28;20222;-69
2023/12/24 02:41:01;;;;;;;0.30;0.30;;;;;;;8.77;68.15;94294.53;5069591;28;20214;-68
2023/12/24 02:43:27;;;;;;;0.40;0.40;;;;;;;8.70;68.23;94281.47;5069641;28;21040;-68
2023/12/24 02:45:52;;;;;;;0.40;0.40;;;;;;;8.53;68.26;94275.94;5071388;28;20186;-68
2023/12/24 02:48:18;;;;;;;0.50;0.50;;;;;;;8.62;68.55;94305.34;5073133;28;20560;-68
2023/12/24 02:50:44;;;;;;;0.40;0.40;;;;;;;8.62;68.61;94305.34;5073162;28;20185;-68
2023/12/24 02:53:10;;;;;;;0.30;0.30;;;;;;;8.37;68.43;94268.59;5073114;28;20265;-68
2023/12/24 02:55:35;;;;;;;0.40;0.40;;;;;;;8.50;68.76;94297.34;5073381;28;20257;-68
2023/12/24 02:58:01;;;;;;;0.33;0.33;;;;;;;8.59;68.16;94309.19;5073161;28;20265;-68
2023/12/24 03:00:26;;;;;;;0.30;0.30;;;;;;;8.57;68.21;94297.28;5072862;28;20221;-68
2023/12/24 03:02:52;;;;;;;0.43;0.43;;;;;;;8.61;67.86;94299.28;5073036;28;20572;-68
2023/12/24 03:05:17;;;;;;;0.40;0.40;;;;;;;8.76;67.99;94316.53;5072910;28;20181;-68
2023/12/24 03:07:43;;;;;;;1.63;1.63;;;;;;;8.72;67.10;94313.56;5072917;28;20628;-68
2023/12/24 03:10:08;;;;;;;0.30;0.30;;;;;;;8.69;67.07;94317.41;5073066;28;20675;-68
2023/12/24 03:12:34;;;;;;;0.40;0.40;;;;;;;8.68;67.09;94323.66;5072732;28;20758;-68
2023/12/24 03:14:59;;;;;;;0.30;0.30;;;;;;;8.61;67.24;94330.78;5072889;28;20189;-68
2023/12/24 03:17:25;;;;;;;0.30;0.30;;;;;;;8.51;66.99;94324.38;5072813;28;20255;-68
2023/12/24 03:19:50;;;;;;;0.40;0.40;;;;;;;8.64;66.74;94335.59;5073058;28;20278;-68
2023/12/24 03:22:16;;;;;;;0.40;0.40;;;;;;;8.75;66.80;94339.34;5072649;28;20698;-68
2023/12/24 03:24:41;;;;;;;0.37;0.37;;;;;;;8.82;66.36;94340.09;5072648;28;20548;-68
2023/12/24 03:27:07;;;;;;;0.30;0.30;;;;;;;8.67;67.13;94334.34;5072818;28;20327;-68
2023/12/24 03:29:32;;;;;;;0.30;0.30;;;;;;;8.80;67.14;94343.97;5072374;28;20661;-68
2023/12/24 03:31:58;;;;;;;0.30;0.30;;;;;;;8.86;66.93;94351.00;5072589;28;20613;-68
2023/12/24 03:34:23;;;;;;;0.40;0.40;;;;;;;8.80;67.30;94364.97;5072254;28;20177;-68
2023/12/24 03:36:49;;;;;;;0.40;0.40;;;;;;;8.73;67.91;94364.22;5072360;28;20602;-69
2023/12/24 03:39:14;;;;;;;0.30;0.30;;;;;;;8.66;67.00;94366.84;5084967;28;20225;-68
2023/12/24 03:41:40;;;;;;;0.30;0.30;;;;;;;8.66;67.29;94380.78;5092472;28;20232;-68
2023/12/24 03:44:06;;;;;;;0.37;0.37;;;;;;;8.69;67.01;94383.00;5092313;28;20219;-68
2023/12/24 03:46:32;;;;;;;0.30;0.30;;;;;;;8.53;67.19;94365.13;5092431;28;20174;-68
2023/12/24 03:48:58;;;;;;;0.30;0.30;;;;;;;8.69;67.50;94396.13;5092392;28;20173;-68
2023/12/24 03:51:24;;;;;;;0.30;0.30;;;;;;;8.68;67.54;94398.94;5092486;28;20545;-68
2023/12/24 03:53:49;;;;;;;0.40;0.40;;;;;;;8.69;67.69;94392.69;5092479;28;20178;-69
2023/12/24 03:56:15;;;;;;;0.50;0.50;;;;;;;8.80;67.01;94399.09;5092025;28;20181;-69
2023/12/24 03:58:40;;;;;;;0.83;0.83;;;;;;;8.85;66.38;94404.50;5091691;28;20260;-69
2023/12/24 04:01:09;;;;;;;1.17;1.17;;;;;;;8.75;66.68;94391.84;5089389;28;20262;-69
2023/12/24 04:03:35;;;;;;;0.40;0.40;;;;;;;8.81;66.54;94404.13;5092123;28;20192;-69
2023/12/24 04:06:01;;;;;;;0.30;0.30;;;;;;;9.01;66.95;94427.63;5092236;28;20180;-69
2023/12/24 04:08:27;;;;;;;0.40;0.40;;;;;;;8.99;66.12;94433.06;5092123;28;20264;-69
2023/12/24 04:10:52;;;;;;;0.40;0.40;;;;;;;9.07;66.74;94432.03;5092064;28;20252;-69
2023/12/24 04:13:18;;;;;;;0.40;0.40;;;;;;;9.06;66.63;94435.69;5091928;28;20174;-69
2023/12/24 04:15:43;;;;;;;0.40;0.40;;;;;;;9.15;66.40;94447.53;5092035;28;20177;-69
2023/12/24 04:18:09;;;;;;;0.40;0.40;;;;;;;9.16;66.35;94454.41;5091922;28;20180;-69
2023/12/24 04:20:34;;;;;;;0.40;0.40;;;;;;;9.19;66.70;94451.34;5090437;28;20288;-69
2023/12/24 04:22:59;;;;;;;0.30;0.30;;;;;;;9.07;66.48;94453.84;5091502;28;20543;-69
2023/12/24 04:25:25;;;;;;;0.30;0.30;;;;;;;9.02;66.52;94435.28;5091683;28;20184;-69
2023/12/24 04:27:51;;;;;;;2.20;1.33;;;;;;;9.01;67.16;94453.88;5091792;28;20208;-69
2023/12/24 04:30:16;;;;;;;0.40;0.40;;;;;;;9.00;67.43;94452.25;5091682;28;20248;-69
2023/12/24 04:32:42;;;;;;;1.03;1.03;;;;;;;9.06;67.03;94446.19;5091469;28;20559;-69
2023/12/24 04:35:07;;;;;;;0.30;0.30;;;;;;;9.06;67.08;94456.69;5090024;28;20181;-69
2023/12/24 04:37:33;;;;;;;0.40;0.40;;;;;;;8.98;67.47;94455.13;5087261;28;20346;-69
2023/12/24 04:39:58;;;;;;;0.40;0.40;;;;;;;8.86;67.49;94443.66;5068869;28;20193;-69
2023/12/24 04:42:24;;;;;;;0.30;0.30;;;;;;;8.93;67.96;94460.16;5071013;28;20213;-68
2023/12/24 04:44:49;;;;;;;0.40;0.40;;;;;;;8.84;68.02;94452.75;5071160;28;20205;-68
2023/12/24 04:47:15;;;;;;;0.40;0.40;;;;;;;8.93;68.18;94470.66;5071074;28;20550;-68
2023/12/24 04:49:40;;;;;;;0.30;0.30;;;;;;;9.02;67.89;94458.91;5070896;28;20249;-69
2023/12/24 04:52:06;;;;;;;0.40;0.40;;;;;;;8.99;67.26;94438.31;5070909;28;20186;-69
2023/12/24 04:54:31;;;;;;;0.30;0.30;;;;;;;8.96;67.39;94436.13;5071011;28;20189;-69
2023/12/24 04:56:58;;;;;;;0.83;0.83;;;;;;;9.16;67.34;94464.91;5053215;28;20655;-69
2023/12/24 04:59:23;;;;;;;0.40;0.40;;;;;;;9.20;67.13;94473.16;5070919;28;20691;-68
2023/12/24 05:01:49;;;;;;;0.40;0.40;;;;;;;9.20;67.56;94476.59;5070646;28;20304;-68
2023/12/24 05:04:15;;;;;;;0.37;0.37;;;;;;;9.18;67.41;94480.44;5070729;28;20640;-68
2023/12/24 05:06:41;;;;;;;0.40;0.40;;;;;;;9.18;67.36;94478.59;5070682;28;20185;-69
2023/12/24 05:09:06;;;;;;;0.40;0.40;;;;;;;9.13;66.79;94491.56;5070341;28;20174;-69
2023/12/24 05:11:31;;;;;;;0.33;0.33;;;;;;;9.07;67.42;94497.69;5070376;28;20209;-68
2023/12/24 05:13:57;;;;;;;0.40;0.40;;;;;;;8.96;67.20;94482.59;5070706;28;20193;-67
2023/12/24 05:16:22;;;;;;;0.40;0.40;;;;;;;9.04;67.48;94498.09;5070508;28;20179;-67
2023/12/24 05:18:49;;;;;;;0.40;0.40;;;;;;;9.03;67.56;94504.34;5070371;28;20176;-67
2023/12/24 05:21:15;;;;;;;0.40;0.40;;;;;;;9.03;67.60;94513.03;5070260;28;20654;-67
2023/12/24 05:23:40;;;;;;;0.40;0.40;;;;;;;8.97;67.73;94518.31;5070525;28;20188;-67
2023/12/24 05:26:05;;;;;;;1.27;1.13;;;;;;;9.00;67.93;94500.31;5070391;28;20220;-67
2023/12/24 05:28:31;;;;;;;0.40;0.40;;;;;;;9.12;67.82;94520.66;5069341;28;20534;-67
2023/12/24 05:30:56;;;;;;;0.37;0.37;;;;;;;9.15;67.70;94515.81;5070199;28;20227;-67
2023/12/24 05:33:22;;;;;;;0.40;0.40;;;;;;;9.26;66.90;94507.25;5070215;28;20178;-67
2023/12/24 05:35:48;;;;;;;0.30;0.30;;;;;;;9.32;67.05;94501.16;5070091;28;20192;-67
2023/12/24 05:38:13;;;;;;;0.40;0.40;;;;;;;9.35;66.55;94498.09;5065861;28;20229;-67
2023/12/24 05:40:39;;;;;;;0.40;0.40;;;;;;;9.40;66.51;94492.22;5090191;28;20198;-67
2023/12/24 05:43:04;;;;;;;0.40;0.40;;;;;;;9.41;66.25;94507.78;5088410;28;20185;-67
2023/12/24 05:45:30;;;;;;;0.40;0.40;;;;;;;9.35;66.38;94524.34;5090229;28;20181;-67
2023/12/24 05:47:56;;;;;;;0.43;0.43;;;;;;;9.39;66.61;94522.13;5089836;28;20734;-68
2023/12/24 05:50:22;;;;;;;0.40;0.40;;;;;;;9.43;66.16;94508.34;5090074;28;20182;-68
2023/12/24 05:52:48;;;;;;;1.03;1.03;;;;;;;9.45;65.80;94503.69;5090293;28;20959;-67
2023/12/24 05:55:13;;;;;;;0.50;0.50;;;;;;;9.35;65.83;94487.59;5090025;28;20181;-67
2023/12/24 05:57:39;;;;;;;0.40;0.40;;;;;;;9.30;66.36;94499.75;5090172;28;20174;-67
2023/12/24 06:00:05;;;;;;;0.30;0.30;;;;;;;9.23;66.85;94494.56;5089838;28;20254;-67
2023/12/24 06:02:30;;;;;;;0.40;0.40;;;;;;;9.23;66.86;94488.50;5089908;28;20681;-67
2023/12/24 06:04:56;;;;;;;0.40;0.40;;;;;;;9.25;66.90;94510.09;5089052;28;20182;-68
2023/12/24 06:07:21;;;;;;;0.30;0.30;;;;;;;9.19;66.84;94516.97;5089081;28;20260;-67
2023/12/24 06:09:47;;;;;;;0.40;0.40;;;;;;;9.16;67.71;94514.78;5087038;28;20177;-68
2023/12/24 06:12:12;;;;;;;0.40;0.40;;;;;;;9.15;66.82;94507.13;5089877;28;20256;-67
2023/12/24 06:14:38;;;;;;;0.30;0.30;;;;;;;9.04;67.78;94505.97;5089904;28;20173;-68
2023/12/24 06:17:03;;;;;;;0.30;0.30;;;;;;;8.93;68.33;94507.41;5089351;28;20261;-68
2023/12/24 06:19:29;;;;;;;0.40;0.40;;;;;;;8.97;68.27;94511.25;5089415;28;20196;-68
2023/12/24 06:21:54;;;;;;;0.30;0.30;;;;;;;8.97;67.77;94519.13;5093656;28;20205;-68
2023/12/24 06:24:24;;;;;;;0.30;0.30;;;;;;;8.94;68.29;94514.28;5094041;28;20543;-68
2023/12/24 06:26:53;;;;;;;0.53;0.53;;;;;;;9.02;69.30;94521.09;5094330;28;20173;-68
2023/12/24 06:29:19;;;;;;;0.40;0.40;;;;;;;9.18;68.34;94528.50;5093929;28;20169;-68
2023/12/24 06:31:44;;;;;;;0.30;0.30;;;;;;;9.30;68.16;94518.94;5094041;28;20696;-68
2023/12/24 06:34:11;;;;;;;0.60;0.60;;;;;;;9.40;67.13;94519.28;5093759;28;20182;-68
2023/12/24 06:36:37;;;;;;;0.53;0.53;;;;;;;9.61;66.03;94514.69;5093417;28;20185;-69
2023/12/24 06:39:03;;;;;;;0.80;0.80;;;;;;;9.65;65.23;94493.06;5077796;28;20222;-69
2023/12/24 06:41:28;;;;;;;0.40;0.40;;;;;;;9.84;65.13;94523.66;5073627;28;20679;-69
2023/12/24 06:43:54;;;;;;;0.40;0.40;;;;;;;9.87;65.44;94522.38;5072300;28;20190;-68
2023/12/24 06:46:20;;;;;;;0.33;0.33;;;;;;;9.81;65.62;94536.41;5072635;28;20652;-68
2023/12/24 06:48:46;;;;;;;0.60;0.60;;;;;;;9.87;65.01;94545.25;5073180;28;20221;-70
2023/12/24 06:51:11;;;;;;;0.40;0.40;;;;;;;9.87;64.74;94558.38;5073218;28;20174;-68
2023/12/24 06:53:37;;;;;;;0.87;0.87;;;;;;;9.89;64.61;94565.03;5073119;28;20592;-68
2023/12/24 06:56:02;;;;;;;0.30;0.30;;;;;;;9.94;64.77;94567.84;5073287;28;20624;-68
2023/12/24 06:58:28;;;;;;;0.37;0.37;;;;;;;9.96;64.36;94571.06;5073083;28;20602;-68
2023/12/24 07:00:53;;;;;;;1.60;1.50;;;;;;;10.04;63.37;94583.13;5072913;28;20440;-69
2023/12/24 07:03:19;;;;;;;0.40;0.40;;;;;;;9.98;64.19;94576.91;5072576;28;20185;-69
2023/12/24 07:05:44;;;;;;;20.30;3.20;;;;;;;9.96;64.02;94565.00;5072313;28;20235;-69
2023/12/24 07:08:10;;;;;;;0.30;0.30;;;;;;;10.06;64.25;94589.78;5072272;28;20177;-69
2023/12/24 07:10:36;;;;;;;0.40;0.40;;;;;;;10.12;63.80;94586.31;5072352;28;20254;-67
2023/12/24 07:13:02;;;;;;;0.40;0.40;;;;;;;10.15;64.14;94580.63;5072443;28;20265;-68
2023/12/24 07:15:31;;;;;;;0.30;0.30;;;;;;;10.22;63.72;94588.47;5072603;28;20193;-68
2023/12/24 07:17:57;;;;;;;0.33;0.33;;;;;;;10.23;63.55;94594.56;5072561;28;20177;-68
2023/12/24 07:20:22;;;;;;;0.30;0.30;;;;;;;10.31;63.52;94589.81;5072516;28;20171;-69
2023/12/24 07:22:48;;;;;;;0.30;0.30;;;;;;;10.44;62.94;94587.09;5072579;28;20633;-67
2023/12/24 07:25:13;;;;;;;0.30;0.30;;;;;;;10.48;62.64;94593.53;5072676;28;20178;-68
2023/12/24 07:27:39;;;;;;;0.40;0.40;;;;;;;10.57;62.59;94604.56;5072925;28;20977;-69
2023/12/24 07:30:05;;;;;;;0.80;0.80;;;;;;;10.59;62.17;94594.66;5072713;28;20574;-69
2023/12/24 07:32:30;;;;;;;0.33;0.33;;;;;;;10.70;62.03;94595.75;5072414;28;20198;-69
2023/12/24 07:34:57;;;;;;;0.60;0.60;;;;;;;10.78;61.46;94593.66;5071662;28;20212;-69
2023/12/24 07:37:22;;;;;;;0.50;0.50;;;;;;;10.82;61.80;94607.97;5053953;28;20175;-70
2023/12/24 07:39:48;;;;;;;0.50;0.50;;;;;;;10.91;61.34;94611.94;5071088;28;20187;-68
2023/12/24 07:42:13;;;;;;;1.43;1.43;;;;;;;10.95;61.17;94621.03;5070998;28;20256;-69
2023/12/24 07:44:40;;;;;;;0.30;0.30;;;;;;;11.00;60.94;94606.38;5071295;28;20183;-68
2023/12/24 07:47:06;;;;;;;0.30;0.30;;;;;;;11.10;60.64;94601.41;5071369;28;20174;-68
2023/12/24 07:49:32;;;;;;;0.40;0.40;;;;;;;11.10;59.98;94582.97;5071426;28;20178;-69
2023/12/24 07:51:58;;;;;;;0.40;0.40;;;;;;;11.30;59.72;94592.25;5070069;28;20193;-69
2023/12/24 07:54:24;;;;;;;0.50;0.50;;;;;;;11.39;59.81;94590.13;5071368;28;20166;-69
2023/12/24 07:56:49;;;;;;;0.33;0.33;;;;;;;11.52;59.28;94586.50;5071669;28;20542;-69
2023/12/24 07:59:15;;;;;;;0.40;0.40;;;;;;;11.72;58.34;94597.59;5071336;28;20227;-69
2023/12/24 08:01:40;;;;;;;0.53;0.53;;;;;;;11.62;57.05;94576.22;5070595;28;20209;-69
2023/12/24 08:04:06;;;;;;;0.40;0.40;;;;;;;11.94;56.45;94608.47;5070771;28;20179;-69
2023/12/24 08:06:31;;;;;;;0.40;0.40;;;;;;;12.07;55.45;94621.47;5071202;28;20265;-69
2023/12/24 08:08:58;;;;;;;0.40;0.40;;;;;;;12.31;55.22;94620.50;5071673;28;20626;-69
2023/12/24 08:11:24;;;;;;;0.30;0.30;;;;;;;12.30;55.13;94608.31;5071822;28;20171;-69
2023/12/24 08:13:49;;;;;;;0.53;0.53;;;;;;;12.30;53.98;94599.59;5071531;28;20294;-69
2023/12/24 08:16:15;;;;;;;0.37;0.37;;;;;;;12.43;53.43;94592.28;5071485;28;20227;-69
2023/12/24 08:18:40;;;;;;;0.50;0.50;;;;;;;12.57;54.16;94590.22;5071218;28;20522;-69
2023/12/24 08:21:10;;;;;;;0.43;0.43;;;;;;;12.78;53.62;94602.06;5071242;28;20725;-69
2023/12/24 08:23:38;;;;;;;0.30;0.30;;;;;;;13.02;52.91;94598.34;5071441;28;20183;-69
2023/12/24 08:26:04;;;;;;;0.30;0.30;;;;;;;12.98;52.22;94578.69;5071393;28;20174;-69
2023/12/24 08:28:30;;;;;;;0.30;0.30;;;;;;;13.27;51.93;94587.53;5053406;28;20216;-69
2023/12/24 08:30:56;;;;;;;0.90;0.90;;;;;;;13.59;50.68;94572.81;5071302;28;20577;-69
2023/12/24 08:33:21;;;;;;;0.30;0.30;;;;;;;14.11;49.95;94563.94;5071370;28;20182;-69
2023/12/24 08:35:47;;;;;;;0.30;0.30;;;;;;;14.36;49.21;94580.22;5053194;28;20178;-69
2023/12/24 08:38:13;;;;;;;0.40;0.40;;;;;;;14.89;48.03;94584.22;5070736;28;20616;-69
2023/12/24 08:40:38;;;;;;;0.30;0.30;;;;;;;15.53;47.56;94581.88;5070880;28;20219;-69
2023/12/24 08:43:04;;;;;;;0.30;0.30;;;;;;;16.23;46.89;94595.91;5070699;28;20178;-69
2023/12/24 08:45:30;;;;;;;0.40;0.40;;;;;;;17.01;44.38;94604.25;5053439;28;20206;-69
2023/12/24 08:47:55;;;;;;;0.40;0.40;;;;;;;17.43;42.48;94569.63;5070955;28;20213;-68
2023/12/24 08:50:21;;;;;;;0.40;0.40;;;;;;;17.98;41.39;94586.88;5070942;28;20232;-69
2023/12/24 08:52:47;;;;;;;1.07;0.97;;;;;;;18.30;40.71;94584.78;5070944;28;20265;-69
2023/12/24 08:55:13;;;;;;;0.35;0.35;;;;;;;18.43;40.74;94588.78;5071000;28;20193;-69
2023/12/24 08:57:38;;;;;;;0.60;0.60;;;;;;;18.48;40.11;94584.25;5070959;28;20228;-69
2023/12/24 09:00:05;;;;;;;0.50;0.50;;;;;;;18.41;39.51;94590.91;5070900;28;20182;-69
2023/12/24 09:02:31;;;;;;;0.50;0.50;;;;;;;18.68;38.50;94574.69;5070128;28;20213;-68
2023/12/24 09:04:58;;;;;;;0.70;0.70;;;;;;;18.93;37.65;94590.66;5070619;28;20189;-68
2023/12/24 09:07:24;;;;;;;7.97;1.85;;;;;;;19.26;37.04;94575.13;5070049;28;20339;-69
2023/12/24 09:09:51;;;;;;;0.50;0.50;;;;;;;19.54;36.94;94577.19;5069905;28;20624;-69
2023/12/24 09:12:18;;;;;;;0.95;0.90;;;;;;;19.46;36.31;94577.72;5070148;28;20188;-69
2023/12/24 09:14:43;;;;;;;0.60;0.60;;;;;;;19.04;35.70;94570.09;5028666;28;20566;-70
2023/12/24 09:17:10;;;;;;;0.40;0.40;;;;;;;19.14;36.03;94583.41;5069914;28;20181;-69
2023/12/24 09:19:35;;;;;;;0.30;0.30;;;;;;;19.16;36.49;94582.06;5069959;28;20635;-68
2023/12/24 09:22:01;;;;;;;0.50;0.50;;;;;;;18.79;35.99;94560.25;5069822;28;20243;-69
2023/12/24 09:24:26;;;;;;;0.50;0.50;;;;;;;18.55;36.89;94583.19;5069838;28;20257;-69
2023/12/24 09:26:52;;;;;;;0.40;0.40;;;;;;;18.53;38.76;94582.66;5069860;28;20258;-69
2023/12/24 09:29:21;;;;;;;0.40;0.40;;;;;;;18.81;38.69;94587.47;5069689;28;20579;-69
2023/12/24 09:31:50;;;;;;;0.40;0.40;;;;;;;18.83;37.26;94575.47;5069891;28;20224;-69
2023/12/24 09:34:15;;;;;;;0.68;0.68;;;;;;;17.99;39.04;94575.91;5069702;28;20228;-69
2023/12/24 09:36:41;;;;;;;0.40;0.40;;;;;;;18.05;38.33;94582.06;5069284;28;20175;-69
2023/12/24 09:39:06;;;;;;;0.40;0.40;;;;;;;18.15;38.12;94583.97;5069468;28;20226;-69
2023/12/24 09:41:32;;;;;;;0.30;0.30;;;;;;;18.00;38.38;94574.88;5069505;28;20190;-69
2023/12/24 09:43:57;;;;;;;0.63;0.63;;;;;;;17.94;38.10;94567.13;5052212;28;20208;-69
2023/12/24 09:46:23;;;;;;;0.30;0.30;;;;;;;17.79;38.53;94573.22;5070116;28;20170;-68
2023/12/24 09:48:49;;;;;;;0.43;0.43;;;;;;;17.62;39.35;94568.13;5069171;28;20221;-68
2023/12/24 09:51:15;;;;;;;2.17;1.20;;;;;;;17.38;39.52;94564.28;5070040;28;20198;-69
2023/12/24 09:53:45;;;;;;;0.30;0.30;;;;;;;16.84;40.17;94543.25;5069961;28;20194;-68
2023/12/24 09:56:10;;;;;;;1.27;1.25;;;;;;;16.78;41.09;94533.63;5068893;28;20181;-69
2023/12/24 09:58:35;;;;;;;0.40;0.40;;;;;;;16.89;41.43;94537.97;5069462;28;20577;-69
2023/12/24 10:01:01;;;;;;;0.50;0.50;;;;;;;16.57;41.45;94523.91;5069655;28;20206;-69
2023/12/24 10:03:27;;;;;;;0.40;0.40;;;;;;;16.49;41.34;94525.19;5069919;28;20181;-68
2023/12/24 10:06:08;;;;;;;0.50;0.50;;;;;;;16.16;41.49;94501.56;5069486;28;20186;-67
2023/12/24 10:08:35;;;;;;;0.40;0.40;;;;;;;16.29;42.14;94489.69;5069426;28;20186;-68
2023/12/24 10:11:11;;;;;;;2.92;2.17;;;;;;;16.58;41.89;94491.78;5069416;28;20174;-67
2023/12/24 10:13:37;;;;;;;0.40;0.40;;;;;;;16.60;42.75;94504.81;5069767;28;20193;-67
2023/12/24 10:16:04;;;;;;;0.63;0.63;;;;;;;16.71;41.68;94493.19;5069575;28;20174;-68
2023/12/24 10:18:31;;;;;;;0.30;0.30;;;;;;;16.57;42.54;94487.50;5069754;28;20177;-68
2023/12/24 10:21:09;;;;;;;0.40;0.40;;;;;;;16.81;42.09;94487.94;5069687;28;20211;-68
2023/12/24 10:23:36;;;;;;;0.50;0.50;;;;;;;16.98;42.49;94479.75;5066938;28;20200;-68
2023/12/24 10:26:07;;;;;;;0.60;0.60;;;;;;;17.06;42.17;94468.63;5069753;28;20176;-69
2023/12/24 10:28:33;;;;;;;0.30;0.30;;;;;;;16.98;41.79;94453.16;5069459;28;20175;-69
2023/12/24 10:31:07;;;;;;;0.40;0.40;;;;;;;17.02;42.25;94438.31;5051619;28;20214;-69
2023/12/24 10:33:32;;;;;;;1.65;0.93;;;;;;;17.01;42.92;94438.56;5069351;28;20180;-69
2023/12/24 10:35:58;;;;;;;1.20;1.15;;;;;;;17.00;41.95;94444.94;5067111;28;20268;-69
2023/12/24 10:38:26;;;;;;;0.40;0.40;;;;;;;16.96;42.95;94437.47;5068125;28;20933;-69
2023/12/24 10:40:52;;;;;;;0.30;0.30;;;;;;;16.73;42.53;94421.97;5068279;28;20656;-69
2023/12/24 10:43:18;;;;;;;0.40;0.40;;;;;;;16.68;42.10;94437.09;5068830;28;20201;-70
2023/12/24 10:45:44;;;;;;;0.32;0.32;;;;;;;16.86;42.46;94458.72;5068837;28;20308;-69
2023/12/24 10:48:09;;;;;;;0.30;0.30;;;;;;;16.70;42.52;94459.69;5068715;28;20257;-69
2023/12/24 10:50:35;;;;;;;0.50;0.50;;;;;;;16.62;43.15;94454.06;5067334;28;20179;-68
2023/12/24 10:53:00;;;;;;;0.30;0.30;;;;;;;16.36;43.33;94437.13;5068412;28;20252;-68
2023/12/24 10:55:26;;;;;;;0.30;0.30;;;;;;;16.29;44.11;94426.75;5051201;28;20193;-68
2023/12/24 10:58:06;;;;;;;1.55;0.82;;;;;;;16.33;44.80;94451.75;5069406;28;20182;-68
2023/12/24 11:00:32;;;;;;;0.40;0.40;;;;;;;16.20;43.75;94445.03;5069367;28;20178;-68
2023/12/24 11:02:57;;;;;;;0.30;0.30;;;;;;;15.84;44.31;94427.22;5069403;28;20178;-69
2023/12/24 11:05:42;;;;;;;0.30;0.30;;;;;;;15.90;44.44;94444.00;5068125;28;20560;-68
2023/12/24 11:08:23;;;;;;;0.60;0.60;;;;;;;15.64;45.28;94430.53;5072905;28;20637;-67
2023/12/24 11:10:58;;;;;;;0.40;0.40;;;;;;;15.64;45.57;94424.41;5072920;28;20224;-68
2023/12/24 11:13:32;;;;;;;10.43;3.92;;;;;;;15.70;45.49;94439.31;5071400;28;20178;-68
2023/12/24 11:16:03;;;;;;;0.40;0.40;;;;;;;15.73;46.22;94444.13;5071415;28;20558;-69
2023/12/24 11:18:46;;;;;;;0.30;0.30;;;;;;;15.62;46.02;94448.56;5070633;28;20595;-69
2023/12/24 11:21:18;;;;;;;0.30;0.30;;;;;;;15.55;46.10;94428.59;5071945;28;20218;-68
2023/12/24 11:24:12;;;;;;;0.90;0.90;;;;;;;15.57;46.37;94453.03;5071602;28;20178;-68
2023/12/24 11:26:48;;;;;;;0.60;0.60;;;;;;;15.29;46.47;94422.22;5059179;28;20254;-68
2023/12/24 11:29:38;;;;;;;1.03;1.03;;;;;;;15.42;46.84;94441.16;5071852;28;20170;-68
2023/12/24 11:32:25;;;;;;;0.40;0.40;;;;;;;15.27;47.85;94424.31;5072314;28;20189;-69
2023/12/24 11:34:55;;;;;;;0.40;0.40;;;;;;;15.38;47.57;94426.81;5071356;28;20190;-68